Time;durP1;ratioP1;P1;durP2;ratioP2;P2;SDS_P1;SDS_P2;PMS_P1;PMS_P2;Temp;Humidity;BMP_temperature;BMP_pressure;BME280_temperature;BME280_humidity;BME280_pressure;Samples;Min_cycle;Max_cycle;Signal;HPM_P1;HPM_P2
2022/03/20 00:01:12;;;;;;;1.02;0.80;;;;;;;;;;20832792;28;20049;-77
2022/03/20 00:11:14;;;;;;;2.83;0.90;;;;;;;;;;20831779;28;20502;-76
2022/03/20 00:21:16;;;;;;;1.55;0.90;;;;;;;;;;20832141;28;20128;-77
2022/03/20 00:31:17;;;;;;;1.33;0.75;;;;;;;;;;20828848;28;20403;-78
2022/03/20 00:41:20;;;;;;;1.00;0.70;;;;;;;;;;20831195;28;20047;-76
2022/03/20 00:51:21;;;;;;;1.65;0.80;;;;;;;;;;20820736;28;20549;-77
2022/03/20 01:01:23;;;;;;;1.85;0.80;;;;;;;;;;20824332;28;20049;-77
2022/03/20 01:11:26;;;;;;;1.63;0.93;;;;;;;;;;20822115;28;20057;-77
2022/03/20 01:21:30;;;;;;;2.25;1.42;;;;;;;;;;20821864;28;20041;-77
2022/03/20 01:31:32;;;;;;;1.40;0.82;;;;;;;;;;20821969;28;20057;-76
2022/03/20 01:41:34;;;;;;;1.98;1.08;;;;;;;;;;20819887;28;20068;-77
2022/03/20 02:01:56;;;;;;;1.27;0.90;;;;;;;;;;20819531;28;20049;-77
2022/03/20 02:11:58;;;;;;;1.80;0.90;;;;;;;;;;20819576;28;20128;-77
2022/03/20 02:22:01;;;;;;;2.08;1.10;;;;;;;;;;20817799;28;20045;-77
2022/03/20 02:32:04;;;;;;;1.63;1.10;;;;;;;;;;20814963;28;20140;-77
2022/03/20 02:42:06;;;;;;;1.17;1.00;;;;;;;;;;20816325;28;20663;-76
2022/03/20 02:52:08;;;;;;;1.50;1.02;;;;;;;;;;20818413;28;20041;-77
2022/03/20 03:02:10;;;;;;;1.65;1.02;;;;;;;;;;20815247;28;20037;-77
2022/03/20 03:12:13;;;;;;;1.80;1.20;;;;;;;;;;20815951;28;20046;-77
2022/03/20 03:22:18;;;;;;;3.50;1.20;;;;;;;;;;20820291;28;20045;-77
2022/03/20 03:32:19;;;;;;;2.55;1.33;;;;;;;;;;20830273;28;20067;-77
2022/03/20 03:42:21;;;;;;;2.45;1.10;;;;;;;;;;20830451;28;20046;-77
2022/03/20 03:52:23;;;;;;;1.50;1.20;;;;;;;;;;20830151;28;20053;-77
2022/03/20 04:02:25;;;;;;;1.70;1.17;;;;;;;;;;20829622;28;20483;-77
2022/03/20 04:12:28;;;;;;;1.50;1.38;;;;;;;;;;20818544;28;20049;-77
2022/03/20 04:22:30;;;;;;;2.00;1.38;;;;;;;;;;20828018;28;21656;-77
2022/03/20 04:32:32;;;;;;;2.40;1.40;;;;;;;;;;20824913;28;20057;-77
2022/03/20 04:42:34;;;;;;;1.77;1.40;;;;;;;;;;20825182;28;20054;-77
2022/03/20 05:02:56;;;;;;;2.17;1.45;;;;;;;;;;20823337;28;20053;-78
2022/03/20 05:23:21;;;;;;;2.80;1.65;;;;;;;;;;20787977;28;20041;-78
2022/03/20 05:33:23;;;;;;;2.63;1.87;;;;;;;;;;20838479;28;20053;-78
2022/03/20 05:43:25;;;;;;;2.58;1.80;;;;;;;;;;20828068;28;20050;-78
2022/03/20 05:53:27;;;;;;;2.28;1.70;;;;;;;;;;20819398;28;20442;-78
2022/03/20 06:03:31;;;;;;;2.85;1.98;;;;;;;;;;20820766;28;20140;-77
2022/03/20 06:13:35;;;;;;;2.53;1.65;;;;;;;;;;20825770;28;20054;-77
2022/03/20 06:23:40;;;;;;;2.22;1.70;;;;;;;;;;20824213;28;20042;-77
2022/03/20 06:33:43;;;;;;;2.30;1.60;;;;;;;;;;20823682;28;20056;-77
2022/03/20 06:43:45;;;;;;;2.50;1.88;;;;;;;;;;20822243;28;20038;-77
2022/03/20 06:53:47;;;;;;;3.53;1.90;;;;;;;;;;20824253;28;20038;-78
2022/03/20 07:03:49;;;;;;;3.00;2.10;;;;;;;;;;20839450;28;20056;-77
2022/03/20 07:13:53;;;;;;;2.70;2.05;;;;;;;;;;20838058;28;20049;-77
2022/03/20 07:23:57;;;;;;;3.80;2.20;;;;;;;;;;20836234;28;20052;-78
2022/03/20 07:33:58;;;;;;;4.20;2.60;;;;;;;;;;20835986;28;20049;-78
2022/03/20 07:44:00;;;;;;;3.92;2.80;;;;;;;;;;20836959;28;20045;-78
2022/03/20 07:54:05;;;;;;;4.10;3.07;;;;;;;;;;20835725;28;20513;-78
2022/03/20 08:04:07;;;;;;;4.15;2.92;;;;;;;;;;20833509;28;20087;-78
2022/03/20 08:14:09;;;;;;;5.78;3.72;;;;;;;;;;20833271;28;20061;-78
2022/03/20 08:24:12;;;;;;;4.35;3.22;;;;;;;;;;20833439;28;20061;-78
2022/03/20 08:34:15;;;;;;;4.85;3.25;;;;;;;;;;20831528;28;20049;-78
2022/03/20 08:44:16;;;;;;;4.80;3.47;;;;;;;;;;20831765;28;20081;-78
2022/03/20 08:54:18;;;;;;;4.93;3.25;;;;;;;;;;20831082;28;20053;-78
2022/03/20 09:04:21;;;;;;;5.18;3.60;;;;;;;;;;20830196;28;20046;-78
2022/03/20 09:14:22;;;;;;;4.57;3.78;;;;;;;;;;20829222;28;20057;-78
2022/03/20 09:24:24;;;;;;;4.75;3.90;;;;;;;;;;20826140;28;20049;-78
2022/03/20 09:34:26;;;;;;;5.30;4.07;;;;;;;;;;20828140;28;20042;-78
2022/03/20 09:44:33;;;;;;;4.90;3.92;;;;;;;;;;20825805;28;20053;-78
2022/03/20 09:54:35;;;;;;;5.27;4.03;;;;;;;;;;20826408;28;20049;-78
2022/03/20 10:04:51;;;;;;;6.38;4.55;;;;;;;;;;20824499;28;20048;-78
2022/03/20 10:14:54;;;;;;;6.60;4.40;;;;;;;;;;20824725;28;20063;-81
2022/03/20 10:25:16;;;;;;;9.07;4.93;;;;;;;;;;20823186;28;20133;-78
2022/03/20 10:35:18;;;;;;;;;;;;;;;;;;20823850;28;20049;-78
2022/03/20 10:45:23;;;;;;;5.95;5.00;;;;;;;;;;20822680;28;19932;-78
2022/03/20 10:55:30;;;;;;;7.40;5.35;;;;;;;;;;20822809;28;20053;-78
2022/03/20 11:05:32;;;;;;;6.37;4.80;;;;;;;;;;20823285;28;20136;-79
2022/03/20 11:15:34;;;;;;;7.25;5.57;;;;;;;;;;20822036;28;20056;-79
2022/03/20 11:25:37;;;;;;;7.03;5.40;;;;;;;;;;20822278;28;20052;-78
2022/03/20 11:35:39;;;;;;;7.55;5.53;;;;;;;;;;20821650;28;20063;-78
2022/03/20 11:46:03;;;;;;;6.80;5.20;;;;;;;;;;20829752;28;20064;-79
2022/03/20 11:56:06;;;;;;;7.57;5.45;;;;;;;;;;20837111;28;20096;-78
2022/03/20 12:06:36;;;;;;;8.48;5.90;;;;;;;;;;20917114;28;20044;-79
2022/03/20 12:16:44;;;;;;;7.55;6.32;;;;;;;;;;20893326;28;20059;-79
2022/03/20 12:26:48;;;;;;;9.45;6.40;;;;;;;;;;20915558;28;20049;-79
2022/03/20 12:36:49;;;;;;;7.95;6.05;;;;;;;;;;20915236;28;20486;-79
2022/03/20 12:46:51;;;;;;;8.32;6.35;;;;;;;;;;20896257;28;20059;-79
2022/03/20 12:56:54;;;;;;;8.60;6.20;;;;;;;;;;20913731;28;20060;-79
2022/03/20 13:06:56;;;;;;;8.35;6.20;;;;;;;;;;20912413;28;20049;-78
2022/03/20 13:16:58;;;;;;;8.80;6.10;;;;;;;;;;20911884;28;20060;-79
2022/03/20 13:27:02;;;;;;;9.30;6.50;;;;;;;;;;20892075;28;20482;-78
2022/03/20 13:37:06;;;;;;;8.93;6.40;;;;;;;;;;20909593;28;20586;-78
2022/03/20 13:47:09;;;;;;;9.30;6.80;;;;;;;;;;20909053;28;20080;-77
2022/03/20 13:57:13;;;;;;;8.15;6.43;;;;;;;;;;20908419;28;20056;-77
2022/03/20 14:07:18;;;;;;;8.05;6.57;;;;;;;;;;20907290;28;20040;-77
2022/03/20 14:17:38;;;;;;;8.68;6.30;;;;;;;;;;20907040;28;20045;-77
2022/03/20 14:27:40;;;;;;;7.80;5.85;;;;;;;;;;20906591;28;20045;-77
2022/03/20 14:48:03;;;;;;;8.40;6.22;;;;;;;;;;20905580;28;20063;-78
2022/03/20 14:58:04;;;;;;;9.38;5.88;;;;;;;;;;20905400;28;20499;-77
2022/03/20 15:18:27;;;;;;;8.32;6.63;;;;;;;;;;20911857;28;20045;-77
2022/03/20 15:28:28;;;;;;;8.05;6.28;;;;;;;;;;20920279;28;20037;-77
2022/03/20 15:38:30;;;;;;;8.75;6.55;;;;;;;;;;20919732;28;20076;-77
2022/03/20 15:48:32;;;;;;;8.00;6.20;;;;;;;;;;20918813;28;20410;-77
2022/03/20 15:58:36;;;;;;;7.82;6.28;;;;;;;;;;20918273;28;20052;-77
2022/03/20 16:08:39;;;;;;;7.05;5.70;;;;;;;;;;20917634;28;20045;-77
2022/03/20 16:19:01;;;;;;;7.18;5.57;;;;;;;;;;20916327;28;20510;-77
2022/03/20 16:29:03;;;;;;;7.85;5.88;;;;;;;;;;20914960;28;20044;-77
2022/03/20 16:39:04;;;;;;;8.10;6.70;;;;;;;;;;20914769;28;20111;-77
2022/03/20 16:49:10;;;;;;;8.45;6.78;;;;;;;;;;20896203;28;20045;-77
2022/03/20 16:59:12;;;;;;;8.18;6.60;;;;;;;;;;20913288;28;20055;-77
2022/03/20 17:09:15;;;;;;;7.75;6.70;;;;;;;;;;20912174;28;20051;-77
2022/03/20 17:19:18;;;;;;;7.75;6.45;;;;;;;;;;20911336;28;20128;-77
2022/03/20 17:29:19;;;;;;;7.75;6.60;;;;;;;;;;20910815;28;20060;-77
2022/03/20 17:39:21;;;;;;;8.70;6.28;;;;;;;;;;20891065;28;20048;-77
2022/03/20 17:49:23;;;;;;;7.38;6.30;;;;;;;;;;20909429;28;20124;-77
2022/03/20 17:59:25;;;;;;;6.95;6.25;;;;;;;;;;20908573;28;20510;-77
2022/03/20 18:09:26;;;;;;;8.40;6.05;;;;;;;;;;20907422;28;20045;-77
2022/03/20 18:19:28;;;;;;;7.53;5.95;;;;;;;;;;20889585;28;20079;-77
2022/03/20 18:29:32;;;;;;;7.70;6.30;;;;;;;;;;20906469;28;20049;-78
2022/03/20 18:39:34;;;;;;;7.85;6.53;;;;;;;;;;20905914;28;20044;-78
2022/03/20 18:49:40;;;;;;;7.50;6.27;;;;;;;;;;20906938;28;20406;-78
2022/03/20 18:59:42;;;;;;;7.90;6.50;;;;;;;;;;20888893;28;20051;-78
2022/03/20 19:09:47;;;;;;;7.63;6.30;;;;;;;;;;20905081;28;20059;-78
2022/03/20 19:19:49;;;;;;;7.13;5.90;;;;;;;;;;20904252;28;20041;-78
2022/03/20 19:29:51;;;;;;;8.25;5.93;;;;;;;;;;20895945;28;20061;-78
2022/03/20 19:39:53;;;;;;;6.60;5.90;;;;;;;;;;20894736;28;20073;-78
2022/03/20 19:49:56;;;;;;;7.78;6.13;;;;;;;;;;20895646;28;20152;-78
2022/03/20 19:59:58;;;;;;;7.40;6.07;;;;;;;;;;20876810;28;20044;-78
2022/03/20 20:10:03;;;;;;;7.75;6.15;;;;;;;;;;20884964;28;20140;-78
2022/03/20 20:20:08;;;;;;;7.72;6.60;;;;;;;;;;20890457;28;20816;-78
2022/03/20 20:30:10;;;;;;;8.10;6.57;;;;;;;;;;20868775;28;20144;-77
2022/03/20 20:40:13;;;;;;;7.75;5.75;;;;;;;;;;20831789;28;20041;-77
2022/03/20 20:50:15;;;;;;;6.13;5.53;;;;;;;;;;20891144;28;20072;-77
2022/03/20 21:00:17;;;;;;;8.20;7.00;;;;;;;;;;20936550;28;20072;-78
2022/03/20 21:20:40;;;;;;;8.75;6.90;;;;;;;;;;20898275;28;20050;-78
2022/03/20 21:30:44;;;;;;;7.03;6.10;;;;;;;;;;20993800;28;20079;-77
2022/03/20 21:40:46;;;;;;;7.70;6.05;;;;;;;;;;20991410;28;20074;-78
2022/03/20 21:50:48;;;;;;;7.68;6.20;;;;;;;;;;20959622;28;20047;-78
2022/03/20 22:00:51;;;;;;;7.90;6.85;;;;;;;;;;20902681;28;20387;-78
2022/03/20 22:10:53;;;;;;;7.50;6.53;;;;;;;;;;20883714;28;20392;-78
2022/03/20 22:20:55;;;;;;;7.15;6.07;;;;;;;;;;20899906;28;20051;-78
2022/03/20 22:30:57;;;;;;;7.30;6.60;;;;;;;;;;20899401;28;20044;-78
2022/03/20 22:40:59;;;;;;;7.30;5.95;;;;;;;;;;20898794;28;20413;-78
2022/03/20 22:51:02;;;;;;;7.25;6.13;;;;;;;;;;20898974;28;20549;-78
2022/03/20 23:01:05;;;;;;;7.05;5.93;;;;;;;;;;20897181;28;20045;-79
2022/03/20 23:11:07;;;;;;;7.28;6.05;;;;;;;;;;20897195;28;20064;-78
2022/03/20 23:21:10;;;;;;;6.75;5.78;;;;;;;;;;20897751;28;20140;-78
2022/03/20 23:31:13;;;;;;;7.13;6.10;;;;;;;;;;20897051;28;20059;-78
2022/03/20 23:51:35;;;;;;;6.22;4.90;;;;;;;;;;20894118;28;20067;-78
